Time;durP1;ratioP1;P1;durP2;ratioP2;P2;SDS_P1;SDS_P2;PMS_P1;PMS_P2;Temp;Humidity;BMP_temperature;BMP_pressure;BME280_temperature;BME280_humidity;BME280_pressure;Samples;Min_cycle;Max_cycle;Signal;HPM_P1;HPM_P2
2023/08/05 00:00:08;;;;;;;7.25;3.35;;;;;;;;;;5030242;28;20471;-70
2023/08/05 00:02:34;;;;;;;7.47;3.63;;;;;;;;;;5027795;28;20064;-70
2023/08/05 00:04:59;;;;;;;3.97;2.70;;;;;;;;;;5026391;28;20037;-69
2023/08/05 00:07:25;;;;;;;4.70;3.30;;;;;;;;;;5030852;28;20060;-70
2023/08/05 00:09:50;;;;;;;6.20;3.50;;;;;;;;;;5050197;28;20095;-70
2023/08/05 00:12:16;;;;;;;5.03;3.53;;;;;;;;;;5033922;28;20041;-70
2023/08/05 00:14:41;;;;;;;5.05;3.35;;;;;;;;;;5026438;28;20046;-70
2023/08/05 00:17:07;;;;;;;6.38;3.13;;;;;;;;;;5026447;28;20037;-70
2023/08/05 00:19:32;;;;;;;6.10;3.70;;;;;;;;;;5026451;28;20095;-70
2023/08/05 00:21:57;;;;;;;7.00;3.40;;;;;;;;;;5024468;28;20028;-70
2023/08/05 00:24:23;;;;;;;5.30;3.25;;;;;;;;;;5029996;28;20041;-70
2023/08/05 00:26:48;;;;;;;5.97;3.33;;;;;;;;;;5027637;28;20474;-70
2023/08/05 00:29:14;;;;;;;7.53;3.20;;;;;;;;;;5027935;28;20060;-70
2023/08/05 00:31:39;;;;;;;6.25;3.00;;;;;;;;;;5028313;28;20691;-70
2023/08/05 00:34:05;;;;;;;5.53;2.88;;;;;;;;;;5046602;28;20711;-70
2023/08/05 00:36:30;;;;;;;5.05;3.08;;;;;;;;;;5046483;28;20064;-70
2023/08/05 00:38:55;;;;;;;6.20;2.95;;;;;;;;;;5045009;28;20667;-69
2023/08/05 00:41:21;;;;;;;5.40;3.03;;;;;;;;;;5048130;28;20128;-70
2023/08/05 00:43:46;;;;;;;5.82;3.30;;;;;;;;;;5054455;28;20068;-70
2023/08/05 00:46:12;;;;;;;4.88;3.08;;;;;;;;;;5047467;28;20032;-70
2023/08/05 00:48:38;;;;;;;7.25;3.15;;;;;;;;;;5047329;28;20037;-70
2023/08/05 00:51:05;;;;;;;5.80;3.28;;;;;;;;;;5047204;28;20045;-70
2023/08/05 00:53:31;;;;;;;7.22;3.28;;;;;;;;;;5047081;28;20466;-70
2023/08/05 00:55:57;;;;;;;5.13;2.92;;;;;;;;;;5046948;28;20033;-70
2023/08/05 00:58:23;;;;;;;4.93;2.88;;;;;;;;;;5047175;28;20449;-70
2023/08/05 01:00:49;;;;;;;10.60;3.15;;;;;;;;;;5047455;28;20596;-70
2023/08/05 01:03:15;;;;;;;6.32;3.20;;;;;;;;;;5044930;28;20095;-70
2023/08/05 01:05:42;;;;;;;6.97;3.33;;;;;;;;;;5047102;28;20513;-70
2023/08/05 01:08:08;;;;;;;6.15;3.25;;;;;;;;;;5046588;28;20512;-70
2023/08/05 01:10:34;;;;;;;5.97;3.40;;;;;;;;;;5046609;28;20096;-70
2023/08/05 01:12:59;;;;;;;5.75;2.97;;;;;;;;;;5047555;28;20025;-70
2023/08/05 01:15:25;;;;;;;6.05;3.03;;;;;;;;;;5047097;28;20061;-70
2023/08/05 01:17:53;;;;;;;7.55;3.33;;;;;;;;;;5045765;28;20549;-70
2023/08/05 01:20:21;;;;;;;5.78;2.80;;;;;;;;;;5046665;28;20087;-70
2023/08/05 01:22:53;;;;;;;6.20;3.05;;;;;;;;;;5046825;28;20071;-70
2023/08/05 01:25:29;;;;;;;4.72;2.53;;;;;;;;;;5045248;28;20029;-69
2023/08/05 01:27:57;;;;;;;3.92;2.63;;;;;;;;;;5046055;28;20039;-70
2023/08/05 01:30:24;;;;;;;4.72;2.90;;;;;;;;;;5047126;28;20541;-70
2023/08/05 01:32:51;;;;;;;5.05;3.00;;;;;;;;;;5050830;28;20052;-70
2023/08/05 01:35:20;;;;;;;4.75;2.97;;;;;;;;;;5057630;28;20044;-69
2023/08/05 01:37:46;;;;;;;11.15;3.67;;;;;;;;;;5047726;28;20043;-70
2023/08/05 01:40:12;;;;;;;5.40;3.53;;;;;;;;;;5044842;28;20025;-70
2023/08/05 01:42:37;;;;;;;4.70;3.42;;;;;;;;;;5041653;28;20057;-70
2023/08/05 01:45:03;;;;;;;6.35;3.63;;;;;;;;;;5045900;28;20124;-70
2023/08/05 01:47:28;;;;;;;5.53;3.00;;;;;;;;;;5037219;28;20037;-70
2023/08/05 01:49:54;;;;;;;5.30;3.35;;;;;;;;;;5045520;28;20037;-70
2023/08/05 01:52:19;;;;;;;8.65;4.22;;;;;;;;;;5044956;28;20141;-70
2023/08/05 01:54:44;;;;;;;6.40;3.42;;;;;;;;;;5045382;28;20024;-70
2023/08/05 01:57:10;;;;;;;5.18;3.30;;;;;;;;;;5046342;28;20081;-70
2023/08/05 01:59:35;;;;;;;6.20;3.50;;;;;;;;;;5046424;28;20033;-70
2023/08/05 02:02:00;;;;;;;6.85;3.53;;;;;;;;;;5042692;28;20367;-70
2023/08/05 02:04:26;;;;;;;6.75;3.50;;;;;;;;;;5046301;28;20025;-70
2023/08/05 02:06:51;;;;;;;9.15;4.85;;;;;;;;;;5046491;28;20071;-70
2023/08/05 02:09:17;;;;;;;7.95;3.13;;;;;;;;;;5044871;28;20402;-70
2023/08/05 02:11:42;;;;;;;7.38;3.88;;;;;;;;;;5047178;28;20131;-70
2023/08/05 02:14:07;;;;;;;9.30;4.28;;;;;;;;;;5046203;28;20557;-70
2023/08/05 02:16:33;;;;;;;8.40;4.00;;;;;;;;;;5045178;28;20040;-69
2023/08/05 02:18:59;;;;;;;9.02;4.13;;;;;;;;;;5046238;28;20100;-69
2023/08/05 02:21:24;;;;;;;9.75;4.50;;;;;;;;;;5064378;28;20043;-70
2023/08/05 02:23:50;;;;;;;8.07;4.25;;;;;;;;;;5064623;28;20528;-70
2023/08/05 02:26:16;;;;;;;8.73;4.55;;;;;;;;;;5065497;28;20036;-70
2023/08/05 02:28:41;;;;;;;6.47;3.70;;;;;;;;;;5065452;28;20463;-69
2023/08/05 02:31:06;;;;;;;7.90;3.80;;;;;;;;;;5066283;28;20035;-70
2023/08/05 02:33:32;;;;;;;9.57;4.00;;;;;;;;;;5063601;28;20040;-70
2023/08/05 02:35:58;;;;;;;7.95;4.10;;;;;;;;;;5065371;28;20045;-70
2023/08/05 02:38:23;;;;;;;8.18;4.18;;;;;;;;;;5043555;28;20053;-70
2023/08/05 02:40:48;;;;;;;9.27;4.10;;;;;;;;;;5045438;28;20039;-70
2023/08/05 02:43:14;;;;;;;8.88;4.68;;;;;;;;;;5045854;28;20037;-70
2023/08/05 02:45:39;;;;;;;7.43;4.15;;;;;;;;;;5045329;28;20549;-70
2023/08/05 02:48:05;;;;;;;8.77;4.53;;;;;;;;;;5045176;28;20045;-70
2023/08/05 02:50:30;;;;;;;7.97;4.55;;;;;;;;;;5045659;28;20037;-70
2023/08/05 02:52:55;;;;;;;6.22;3.63;;;;;;;;;;5042465;28;20143;-69
2023/08/05 02:55:21;;;;;;;7.30;4.22;;;;;;;;;;5041015;28;20282;-70
2023/08/05 02:57:47;;;;;;;6.95;4.00;;;;;;;;;;5052569;28;20025;-70
2023/08/05 03:00:12;;;;;;;6.70;3.65;;;;;;;;;;5053848;28;20037;-70
2023/08/05 03:02:37;;;;;;;6.50;3.78;;;;;;;;;;5042419;28;20132;-70
2023/08/05 03:05:03;;;;;;;8.68;4.18;;;;;;;;;;5043471;28;20036;-70
2023/08/05 03:07:28;;;;;;;7.68;4.15;;;;;;;;;;5040702;28;20108;-70
2023/08/05 03:09:54;;;;;;;7.05;4.15;;;;;;;;;;5044042;28;20521;-70
2023/08/05 03:12:20;;;;;;;9.02;4.20;;;;;;;;;;5039910;28;20033;-70
2023/08/05 03:14:46;;;;;;;7.88;4.10;;;;;;;;;;5044932;28;20107;-70
2023/08/05 03:17:11;;;;;;;8.68;4.53;;;;;;;;;;5045030;28;20083;-70
2023/08/05 03:19:36;;;;;;;11.07;4.95;;;;;;;;;;5045358;28;20025;-70
2023/08/05 03:22:02;;;;;;;8.13;4.53;;;;;;;;;;5043790;28;20021;-70
2023/08/05 03:24:27;;;;;;;9.50;4.47;;;;;;;;;;5044780;28;20467;-70
2023/08/05 03:26:53;;;;;;;8.38;4.40;;;;;;;;;;5044456;28;20052;-70
2023/08/05 03:29:18;;;;;;;8.45;4.22;;;;;;;;;;5044498;28;20041;-70
2023/08/05 03:31:43;;;;;;;8.65;4.72;;;;;;;;;;5044641;28;20116;-70
2023/08/05 03:34:09;;;;;;;9.63;4.53;;;;;;;;;;5044058;28;20459;-70
2023/08/05 03:36:36;;;;;;;6.80;4.35;;;;;;;;;;5044939;28;20037;-70
2023/08/05 03:39:02;;;;;;;7.22;4.18;;;;;;;;;;5044941;28;20048;-70
2023/08/05 03:41:27;;;;;;;9.98;4.82;;;;;;;;;;5043274;28;20053;-70
2023/08/05 03:43:53;;;;;;;9.25;4.50;;;;;;;;;;5043810;28;20059;-70
2023/08/05 03:46:18;;;;;;;8.30;4.15;;;;;;;;;;5054411;28;20389;-70
2023/08/05 03:48:44;;;;;;;8.73;4.53;;;;;;;;;;5065258;28;20020;-70
2023/08/05 03:51:09;;;;;;;8.00;4.68;;;;;;;;;;5066755;28;20413;-70
2023/08/05 03:53:35;;;;;;;11.52;4.82;;;;;;;;;;5053668;28;20033;-69
2023/08/05 03:56:01;;;;;;;12.40;4.25;;;;;;;;;;5048226;28;20029;-70
2023/08/05 03:58:26;;;;;;;9.43;4.40;;;;;;;;;;5048152;28;20028;-70
2023/08/05 04:00:52;;;;;;;8.50;4.55;;;;;;;;;;5048607;28;20100;-70
2023/08/05 04:03:17;;;;;;;8.27;4.30;;;;;;;;;;5048162;28;20033;-70
2023/08/05 04:05:43;;;;;;;9.95;4.30;;;;;;;;;;5053604;28;20029;-70
2023/08/05 04:08:08;;;;;;;11.48;5.18;;;;;;;;;;5046727;28;20036;-70
2023/08/05 04:10:35;;;;;;;11.18;4.68;;;;;;;;;;5047922;28;20025;-70
2023/08/05 04:13:03;;;;;;;8.57;4.70;;;;;;;;;;5048686;28;20482;-70
2023/08/05 04:15:30;;;;;;;10.90;5.35;;;;;;;;;;5048563;28;20052;-70
2023/08/05 04:17:59;;;;;;;15.35;5.40;;;;;;;;;;5048101;28;20040;-70
2023/08/05 04:20:27;;;;;;;11.95;5.68;;;;;;;;;;5050975;28;20595;-70
2023/08/05 04:22:53;;;;;;;10.15;5.60;;;;;;;;;;5055204;28;20116;-70
2023/08/05 04:25:18;;;;;;;12.00;6.78;;;;;;;;;;5053321;28;20040;-69
2023/08/05 04:27:43;;;;;;;14.07;5.72;;;;;;;;;;5029451;28;20021;-70
2023/08/05 04:30:09;;;;;;;12.30;6.32;;;;;;;;;;5028097;28;20855;-70
2023/08/05 04:32:35;;;;;;;14.30;6.35;;;;;;;;;;5026037;28;20049;-70
2023/08/05 04:35:00;;;;;;;11.10;6.03;;;;;;;;;;5028161;28;20682;-70
2023/08/05 04:37:27;;;;;;;15.23;7.10;;;;;;;;;;5028021;28;20418;-70
2023/08/05 04:39:53;;;;;;;16.75;6.53;;;;;;;;;;5026326;28;20026;-70
2023/08/05 04:42:18;;;;;;;13.73;6.75;;;;;;;;;;5026690;28;20089;-70
2023/08/05 04:44:45;;;;;;;15.65;6.55;;;;;;;;;;5026519;28;20411;-70
2023/08/05 04:47:11;;;;;;;13.10;6.47;;;;;;;;;;5023060;28;20042;-71
2023/08/05 04:49:40;;;;;;;11.50;5.63;;;;;;;;;;5027175;28;20052;-70
2023/08/05 04:52:06;;;;;;;13.35;7.00;;;;;;;;;;5026485;28;20025;-70
2023/08/05 04:54:39;;;;;;;13.70;6.68;;;;;;;;;;5026833;28;20033;-70
2023/08/05 04:57:05;;;;;;;12.85;6.28;;;;;;;;;;5042381;28;20151;-70
2023/08/05 04:59:31;;;;;;;13.65;6.70;;;;;;;;;;5045734;28;20033;-70
2023/08/05 05:01:56;;;;;;;13.23;6.53;;;;;;;;;;5046844;28;20040;-71
2023/08/05 05:04:21;;;;;;;11.43;6.22;;;;;;;;;;5046858;28;20025;-70
2023/08/05 05:06:47;;;;;;;14.43;6.63;;;;;;;;;;5047138;28;20031;-70
2023/08/05 05:09:12;;;;;;;14.32;6.35;;;;;;;;;;5045817;28;20033;-70
2023/08/05 05:11:37;;;;;;;15.57;6.40;;;;;;;;;;5046155;28;20086;-71
2023/08/05 05:14:03;;;;;;;12.75;6.35;;;;;;;;;;5047047;28;20057;-70
2023/08/05 05:16:29;;;;;;;17.73;7.18;;;;;;;;;;5046824;28;20482;-70
2023/08/05 05:18:54;;;;;;;10.77;5.65;;;;;;;;;;5047053;28;20032;-70
2023/08/05 05:21:20;;;;;;;12.43;6.20;;;;;;;;;;5046957;28;20093;-71
2023/08/05 05:23:45;;;;;;;12.15;6.45;;;;;;;;;;5045641;28;20041;-70
2023/08/05 05:26:10;;;;;;;16.75;6.35;;;;;;;;;;5045700;28;20037;-70
2023/08/05 05:28:36;;;;;;;11.07;6.10;;;;;;;;;;5046712;28;20080;-70
2023/08/05 05:31:02;;;;;;;12.35;6.00;;;;;;;;;;5046781;28;20453;-70
2023/08/05 05:33:28;;;;;;;12.48;6.20;;;;;;;;;;5046635;28;20057;-70
2023/08/05 05:35:53;;;;;;;12.05;6.53;;;;;;;;;;5045995;28;20056;-71
2023/08/05 05:38:18;;;;;;;13.57;5.68;;;;;;;;;;5046674;28;20041;-71
2023/08/05 05:40:44;;;;;;;12.63;6.25;;;;;;;;;;5046345;28;20060;-70
2023/08/05 05:43:10;;;;;;;10.85;5.97;;;;;;;;;;5046309;28;20888;-70
2023/08/05 05:45:35;;;;;;;13.15;6.30;;;;;;;;;;5065798;28;20029;-70
2023/08/05 05:48:01;;;;;;;11.25;5.55;;;;;;;;;;5057371;28;20658;-70
2023/08/05 05:50:26;;;;;;;15.30;6.38;;;;;;;;;;5061981;28;20136;-70
2023/08/05 05:52:53;;;;;;;11.50;6.20;;;;;;;;;;5057827;28;20069;-70
2023/08/05 05:55:19;;;;;;;12.98;5.50;;;;;;;;;;5025879;28;20112;-70
2023/08/05 05:57:45;;;;;;;10.32;5.50;;;;;;;;;;5026177;28;20100;-71
2023/08/05 06:00:10;;;;;;;13.75;5.93;;;;;;;;;;5024391;28;20111;-70
2023/08/05 06:02:37;;;;;;;12.23;5.28;;;;;;;;;;5036779;28;20033;-70
2023/08/05 06:05:02;;;;;;;10.30;5.32;;;;;;;;;;5045523;28;20835;-70
2023/08/05 06:07:27;;;;;;;11.68;5.47;;;;;;;;;;5046106;28;20108;-70
2023/08/05 06:09:53;;;;;;;14.57;4.72;;;;;;;;;;5046050;28;20561;-70
2023/08/05 06:12:18;;;;;;;10.13;4.80;;;;;;;;;;5045669;28;20589;-70
2023/08/05 06:14:44;;;;;;;11.27;5.05;;;;;;;;;;5045353;28;20079;-70
2023/08/05 06:17:09;;;;;;;9.43;4.43;;;;;;;;;;5045677;28;20060;-71
2023/08/05 06:19:34;;;;;;;12.38;3.92;;;;;;;;;;5045500;28;20154;-71
2023/08/05 06:22:00;;;;;;;9.48;4.60;;;;;;;;;;5046123;28;20106;-70
2023/08/05 06:24:25;;;;;;;9.90;4.40;;;;;;;;;;5045807;28;20526;-70
2023/08/05 06:26:50;;;;;;;9.02;4.43;;;;;;;;;;5044360;28;20045;-70
2023/08/05 06:29:16;;;;;;;9.50;3.97;;;;;;;;;;5045514;28;20118;-70
2023/08/05 06:31:41;;;;;;;8.10;4.35;;;;;;;;;;5044772;28;20545;-71
2023/08/05 06:34:06;;;;;;;7.07;3.80;;;;;;;;;;5044692;28;20067;-71
2023/08/05 06:36:32;;;;;;;9.77;4.38;;;;;;;;;;5045412;28;20040;-71
2023/08/05 06:38:57;;;;;;;6.13;3.17;;;;;;;;;;5045332;28;20533;-71
2023/08/05 06:41:23;;;;;;;7.50;3.63;;;;;;;;;;5043651;28;20056;-71
2023/08/05 06:43:50;;;;;;;8.18;3.67;;;;;;;;;;5042987;28;20029;-71
2023/08/05 06:46:15;;;;;;;8.77;3.67;;;;;;;;;;5045026;28;20413;-71
2023/08/05 06:48:41;;;;;;;9.32;3.65;;;;;;;;;;5044887;28;20043;-70
2023/08/05 06:51:06;;;;;;;8.57;4.05;;;;;;;;;;5043191;28;20635;-71
2023/08/05 06:53:33;;;;;;;9.73;3.95;;;;;;;;;;5045557;28;20092;-71
2023/08/05 06:56:03;;;;;;;7.15;3.88;;;;;;;;;;5044827;28;20513;-71
2023/08/05 06:58:28;;;;;;;8.88;3.83;;;;;;;;;;5044685;28;20028;-71
2023/08/05 07:00:54;;;;;;;12.18;3.50;;;;;;;;;;5045211;28;20167;-71
2023/08/05 07:03:19;;;;;;;5.88;3.65;;;;;;;;;;5041085;28;20037;-71
2023/08/05 07:05:44;;;;;;;6.93;3.30;;;;;;;;;;5044006;28;20044;-71
2023/08/05 07:08:10;;;;;;;5.63;3.60;;;;;;;;;;5040501;28;20170;-70
2023/08/05 07:10:36;;;;;;;4.78;3.42;;;;;;;;;;5042298;28;20063;-70
2023/08/05 07:13:05;;;;;;;5.15;3.55;;;;;;;;;;5052053;28;20083;-71
2023/08/05 07:15:31;;;;;;;6.53;2.88;;;;;;;;;;5063309;28;20036;-70
2023/08/05 07:17:56;;;;;;;9.80;3.80;;;;;;;;;;5049829;28;20529;-70
2023/08/05 07:20:22;;;;;;;5.82;2.97;;;;;;;;;;5041472;28;20037;-70
2023/08/05 07:22:47;;;;;;;9.60;3.97;;;;;;;;;;5017673;28;20057;-70
2023/08/05 07:25:12;;;;;;;8.20;3.38;;;;;;;;;;5025601;28;20098;-71
2023/08/05 07:27:38;;;;;;;4.68;2.92;;;;;;;;;;5020436;28;20038;-70
2023/08/05 07:30:03;;;;;;;8.73;3.60;;;;;;;;;;5036683;28;20041;-70
2023/08/05 07:32:30;;;;;;;5.88;2.70;;;;;;;;;;5045009;28;20040;-70
2023/08/05 07:34:56;;;;;;;8.55;3.30;;;;;;;;;;5042385;28;20049;-70
2023/08/05 07:37:21;;;;;;;5.88;3.15;;;;;;;;;;5028029;28;20044;-70
2023/08/05 07:39:48;;;;;;;5.85;3.03;;;;;;;;;;5038251;28;20028;-70
2023/08/05 07:42:19;;;;;;;4.65;3.10;;;;;;;;;;5044661;28;20049;-70
2023/08/05 07:44:46;;;;;;;10.68;3.33;;;;;;;;;;5046575;28;20437;-70
2023/08/05 07:47:12;;;;;;;6.47;2.92;;;;;;;;;;5034215;28;20045;-71
2023/08/05 07:49:38;;;;;;;6.40;2.60;;;;;;;;;;5049346;28;20032;-70
2023/08/05 07:52:06;;;;;;;5.43;2.80;;;;;;;;;;5045465;28;20052;-70
2023/08/05 07:54:32;;;;;;;5.05;2.97;;;;;;;;;;5044827;28;20052;-70
2023/08/05 07:56:58;;;;;;;4.95;2.72;;;;;;;;;;5042980;28;20132;-71
2023/08/05 07:59:25;;;;;;;9.27;2.60;;;;;;;;;;5046961;28;20037;-70
2023/08/05 08:01:52;;;;;;;4.45;2.50;;;;;;;;;;5048235;28;20037;-70
2023/08/05 08:04:18;;;;;;;6.32;2.92;;;;;;;;;;5051163;28;20068;-70
2023/08/05 08:06:45;;;;;;;5.75;2.60;;;;;;;;;;5057151;28;20045;-70
2023/08/05 08:09:11;;;;;;;6.10;3.10;;;;;;;;;;5046052;28;20383;-69
2023/08/05 08:11:36;;;;;;;4.72;2.90;;;;;;;;;;5041901;28;20041;-69
2023/08/05 08:14:04;;;;;;;5.93;3.05;;;;;;;;;;5041413;28;20418;-69
2023/08/05 08:16:30;;;;;;;5.63;3.30;;;;;;;;;;5042037;28;20029;-69
2023/08/05 08:18:55;;;;;;;7.85;3.20;;;;;;;;;;5044751;28;20425;-69
2023/08/05 08:21:21;;;;;;;6.05;3.42;;;;;;;;;;5043248;28;20043;-69
2023/08/05 08:23:46;;;;;;;6.90;3.78;;;;;;;;;;5046178;28;20033;-69
2023/08/05 08:26:11;;;;;;;8.48;3.60;;;;;;;;;;5044367;28;20047;-69
2023/08/05 08:28:37;;;;;;;10.07;3.97;;;;;;;;;;5044066;28;20639;-68
2023/08/05 08:31:02;;;;;;;6.97;3.97;;;;;;;;;;5042405;28;20128;-69
2023/08/05 08:33:28;;;;;;;9.18;4.63;;;;;;;;;;5044078;28;20044;-69
2023/08/05 08:35:53;;;;;;;8.15;4.32;;;;;;;;;;5051528;28;20041;-69
2023/08/05 08:38:20;;;;;;;9.38;4.57;;;;;;;;;;5044144;28;20048;-68
2023/08/05 08:40:50;;;;;;;6.97;3.60;;;;;;;;;;5046343;28;20040;-68
2023/08/05 08:43:20;;;;;;;7.10;4.03;;;;;;;;;;5046720;28;20046;-69
2023/08/05 08:45:48;;;;;;;12.15;4.70;;;;;;;;;;5025782;28;20127;-69
2023/08/05 08:48:15;;;;;;;8.15;4.25;;;;;;;;;;5046776;28;20050;-69
2023/08/05 08:50:42;;;;;;;9.38;4.25;;;;;;;;;;5041599;28;20545;-69
2023/08/05 08:53:10;;;;;;;7.13;3.90;;;;;;;;;;5028594;28;20083;-69
2023/08/05 08:55:40;;;;;;;8.25;4.38;;;;;;;;;;5014893;28;20095;-69
2023/08/05 08:58:06;;;;;;;8.35;4.43;;;;;;;;;;5018473;28;20051;-69
2023/08/05 09:00:32;;;;;;;7.65;4.20;;;;;;;;;;5017733;28;20041;-69
2023/08/05 09:03:00;;;;;;;9.85;4.47;;;;;;;;;;5025193;28;20055;-69
2023/08/05 09:05:32;;;;;;;7.57;4.45;;;;;;;;;;5022787;28;20041;-69
2023/08/05 09:08:00;;;;;;;7.60;4.00;;;;;;;;;;5013974;28;20414;-69
2023/08/05 09:10:25;;;;;;;10.05;4.60;;;;;;;;;;5017651;28;20137;-69
2023/08/05 09:12:52;;;;;;;6.40;4.13;;;;;;;;;;5019938;28;20673;-70
2023/08/05 09:15:20;;;;;;;11.38;4.65;;;;;;;;;;5025753;28;20052;-69
2023/08/05 09:17:46;;;;;;;7.82;3.75;;;;;;;;;;5024611;28;20529;-69
2023/08/05 09:20:13;;;;;;;5.80;3.78;;;;;;;;;;5011375;28;20037;-69
2023/08/05 09:22:38;;;;;;;7.72;4.00;;;;;;;;;;5013851;28;20110;-69
2023/08/05 09:25:04;;;;;;;9.68;3.78;;;;;;;;;;5001514;28;20030;-69
2023/08/05 09:27:45;;;;;;;6.55;3.70;;;;;;;;;;4964455;28;20530;-70
2023/08/05 09:30:17;;;;;;;6.10;3.45;;;;;;;;;;4982890;28;20045;-69
2023/08/05 09:32:46;;;;;;;5.32;3.78;;;;;;;;;;4988416;28;20036;-69
2023/08/05 09:35:12;;;;;;;6.60;3.75;;;;;;;;;;4988611;28;20151;-69
2023/08/05 09:37:40;;;;;;;6.53;3.80;;;;;;;;;;4987520;28;20037;-69
2023/08/05 09:40:16;;;;;;;5.72;3.30;;;;;;;;;;4990567;28;20036;-70
2023/08/05 09:42:47;;;;;;;6.60;3.42;;;;;;;;;;4991210;28;20048;-70
2023/08/05 09:45:17;;;;;;;7.03;3.38;;;;;;;;;;4982431;28;20037;-71
2023/08/05 09:47:43;;;;;;;5.25;3.10;;;;;;;;;;4990905;28;20517;-71
2023/08/05 09:50:13;;;;;;;6.90;2.92;;;;;;;;;;5000719;28;20040;-70
2023/08/05 09:52:39;;;;;;;4.93;2.60;;;;;;;;;;5004059;28;20045;-70
2023/08/05 09:55:16;;;;;;;4.13;2.42;;;;;;;;;;5005129;28;20033;-70
2023/08/05 09:57:42;;;;;;;3.78;2.35;;;;;;;;;;5002761;28;20043;-70
2023/08/05 10:00:12;;;;;;;7.18;2.72;;;;;;;;;;5009772;28;20041;-70
2023/08/05 10:02:42;;;;;;;6.18;2.40;;;;;;;;;;4997205;28;20114;-70
2023/08/05 10:05:10;;;;;;;5.47;2.40;;;;;;;;;;4995053;28;20121;-70
2023/08/05 10:07:37;;;;;;;4.30;2.15;;;;;;;;;;5001083;28;20036;-69
2023/08/05 10:10:07;;;;;;;6.45;2.03;;;;;;;;;;5039017;28;20036;-68
2023/08/05 10:12:38;;;;;;;6.47;2.30;;;;;;;;;;5042596;28;20029;-68
2023/08/05 10:15:05;;;;;;;5.88;2.33;;;;;;;;;;5044246;28;20473;-69
2023/08/05 10:17:30;;;;;;;3.13;2.10;;;;;;;;;;5045445;28;20521;-69
2023/08/05 10:19:56;;;;;;;7.20;2.15;;;;;;;;;;5045205;28;20044;-69
2023/08/05 10:22:23;;;;;;;3.30;1.90;;;;;;;;;;5044703;28;20376;-68
2023/08/05 10:24:56;;;;;;;5.07;1.70;;;;;;;;;;5060885;28;20119;-69
2023/08/05 10:27:43;;;;;;;;;;;;;;;;;;5055097;28;20445;-69
2023/08/05 10:30:13;;;;;;;4.13;1.92;;;;;;;;;;5052596;28;19987;-68
2023/08/05 10:33:07;;;;;;;4.53;1.90;;;;;;;;;;5045554;28;20029;-68
2023/08/05 10:35:44;;;;;;;3.60;2.00;;;;;;;;;;5041647;28;20102;-68
2023/08/05 10:38:10;;;;;;;2.35;1.88;;;;;;;;;;5041546;28;20041;-69
2023/08/05 10:40:48;;;;;;;3.92;2.03;;;;;;;;;;5045464;28;20021;-69
2023/08/05 10:43:35;;;;;;;5.88;2.03;;;;;;;;;;5042451;28;20025;-69
2023/08/05 10:46:13;;;;;;;8.45;2.28;;;;;;;;;;5038309;28;20033;-69
2023/08/05 10:48:44;;;;;;;7.22;2.47;;;;;;;;;;5017614;28;20121;-69
2023/08/05 10:51:13;;;;;;;4.63;2.60;;;;;;;;;;5023447;28;20047;-69
2023/08/05 10:53:39;;;;;;;3.88;2.25;;;;;;;;;;5015874;28;20029;-68
2023/08/05 10:56:11;;;;;;;5.60;2.70;;;;;;;;;;5033151;28;20733;-69
2023/08/05 10:58:42;;;;;;;5.03;2.80;;;;;;;;;;5036190;28;20018;-69
2023/08/05 11:01:07;;;;;;;6.57;2.88;;;;;;;;;;5029566;28;20090;-68
2023/08/05 11:03:56;;;;;;;7.55;2.53;;;;;;;;;;5023612;28;20037;-68
2023/08/05 11:06:23;;;;;;;4.82;2.53;;;;;;;;;;5020454;28;20057;-68
2023/08/05 11:08:49;;;;;;;4.13;2.50;;;;;;;;;;5024529;28;20055;-68
2023/08/05 11:11:15;;;;;;;4.30;2.42;;;;;;;;;;5023484;28;20046;-68
2023/08/05 11:13:45;;;;;;;6.50;2.58;;;;;;;;;;5028651;28;20315;-68
2023/08/05 11:16:12;;;;;;;5.15;2.33;;;;;;;;;;5028490;28;20032;-68
2023/08/05 11:18:39;;;;;;;3.85;2.30;;;;;;;;;;5029176;28;20033;-68
2023/08/05 11:21:07;;;;;;;8.68;2.30;;;;;;;;;;5028617;28;20038;-68
2023/08/05 11:23:35;;;;;;;4.90;2.00;;;;;;;;;;5033363;28;20417;-68
2023/08/05 11:26:01;;;;;;;5.55;2.65;;;;;;;;;;5029088;28;20030;-68
2023/08/05 11:28:27;;;;;;;4.70;2.40;;;;;;;;;;5030064;28;20049;-68
2023/08/05 11:30:54;;;;;;;5.63;2.17;;;;;;;;;;5028163;28;20034;-68
2023/08/05 11:33:21;;;;;;;3.88;2.60;;;;;;;;;;5027513;28;20056;-68
2023/08/05 11:35:48;;;;;;;6.47;2.10;;;;;;;;;;5028305;28;20070;-68
2023/08/05 11:38:17;;;;;;;3.67;2.00;;;;;;;;;;5027237;28;20087;-68
2023/08/05 11:40:45;;;;;;;5.20;2.13;;;;;;;;;;5027005;28;20108;-68
2023/08/05 11:43:12;;;;;;;2.70;2.00;;;;;;;;;;5023931;28;20478;-68
2023/08/05 11:45:41;;;;;;;3.65;2.00;;;;;;;;;;5023173;28;20042;-68
2023/08/05 11:48:24;;;;;;;3.22;2.00;;;;;;;;;;5024497;28;20032;-69
2023/08/05 11:51:00;;;;;;;4.13;1.90;;;;;;;;;;5004920;28;20538;-69
2023/08/05 11:53:29;;;;;;;3.15;1.90;;;;;;;;;;5033192;28;20045;-69
2023/08/05 11:55:55;;;;;;;4.43;1.95;;;;;;;;;;5018163;28;20041;-69
2023/08/05 11:58:23;;;;;;;3.72;2.10;;;;;;;;;;5005686;28;20029;-69
2023/08/05 12:00:59;;;;;;;3.22;2.00;;;;;;;;;;5027499;28;20101;-69
2023/08/05 12:03:32;;;;;;;8.88;2.15;;;;;;;;;;5013169;28;20529;-69
2023/08/05 12:06:02;;;;;;;6.07;2.22;;;;;;;;;;5042565;28;20537;-68
2023/08/05 12:08:42;;;;;;;4.40;2.00;;;;;;;;;;5027665;28;20522;-69
2023/08/05 12:11:08;;;;;;;3.72;1.70;;;;;;;;;;5026290;28;20072;-68
2023/08/05 12:13:34;;;;;;;4.60;2.35;;;;;;;;;;5027962;28;20030;-68
2023/08/05 12:16:00;;;;;;;4.63;1.88;;;;;;;;;;5027946;28;20026;-68
2023/08/05 12:18:26;;;;;;;2.35;1.52;;;;;;;;;;5009609;28;20653;-69
2023/08/05 12:20:51;;;;;;;4.72;1.88;;;;;;;;;;5026822;28;20439;-68
2023/08/05 12:23:16;;;;;;;2.83;1.50;;;;;;;;;;5008664;28;20068;-68
2023/08/05 12:25:42;;;;;;;3.92;1.48;;;;;;;;;;5026810;28;20030;-69
2023/08/05 12:28:07;;;;;;;2.97;1.58;;;;;;;;;;5027497;28;20026;-69
2023/08/05 12:30:33;;;;;;;3.38;1.77;;;;;;;;;;5026419;28;20132;-68
2023/08/05 12:32:58;;;;;;;3.05;1.30;;;;;;;;;;5026424;28;20048;-68
2023/08/05 12:35:24;;;;;;;2.60;1.40;;;;;;;;;;5027325;28;20043;-69
2023/08/05 12:37:50;;;;;;;2.13;1.40;;;;;;;;;;5026679;28;20095;-69
2023/08/05 12:40:15;;;;;;;3.58;1.70;;;;;;;;;;5027839;28;20026;-68
2023/08/05 12:42:41;;;;;;;2.38;1.60;;;;;;;;;;5027250;28;20041;-68
2023/08/05 12:45:08;;;;;;;2.30;1.50;;;;;;;;;;5039246;28;20037;-68
2023/08/05 12:47:34;;;;;;;3.25;1.48;;;;;;;;;;5036529;28;20466;-68
2023/08/05 12:50:00;;;;;;;5.45;1.70;;;;;;;;;;5022633;28;20073;-68
2023/08/05 12:52:26;;;;;;;4.15;1.65;;;;;;;;;;5019615;28;20049;-68
2023/08/05 12:54:52;;;;;;;4.18;2.28;;;;;;;;;;5026030;28;20518;-68
2023/08/05 12:57:17;;;;;;;8.77;5.13;;;;;;;;;;5019184;28;20183;-68
2023/08/05 12:59:43;;;;;;;7.90;3.20;;;;;;;;;;5025340;28;20044;-68
2023/08/05 13:02:08;;;;;;;2.75;1.58;;;;;;;;;;5023071;28;20438;-68
2023/08/05 13:04:34;;;;;;;5.15;2.15;;;;;;;;;;5028055;28;20029;-68
2023/08/05 13:06:59;;;;;;;4.45;1.77;;;;;;;;;;5023666;28;20421;-68
2023/08/05 13:09:25;;;;;;;3.95;1.80;;;;;;;;;;5017575;28;20100;-68
2023/08/05 13:11:50;;;;;;;3.83;2.13;;;;;;;;;;5031662;28;20039;-68
2023/08/05 13:14:15;;;;;;;2.70;1.55;;;;;;;;;;5046034;28;20082;-68
2023/08/05 13:16:41;;;;;;;3.95;1.80;;;;;;;;;;5044659;28;20041;-68
2023/08/05 13:19:07;;;;;;;3.08;1.75;;;;;;;;;;5046072;28;20037;-69
2023/08/05 13:21:33;;;;;;;3.70;2.30;;;;;;;;;;5044375;28;20531;-69
2023/08/05 13:23:58;;;;;;;2.95;1.90;;;;;;;;;;5043991;28;20043;-69
2023/08/05 13:26:24;;;;;;;2.67;1.90;;;;;;;;;;5044505;28;20036;-69
2023/08/05 13:28:49;;;;;;;5.18;1.90;;;;;;;;;;5050390;28;20044;-69
2023/08/05 13:31:14;;;;;;;4.28;2.25;;;;;;;;;;5064550;28;20530;-69
2023/08/05 13:33:40;;;;;;;3.75;2.30;;;;;;;;;;5064069;28;20144;-69
2023/08/05 13:36:06;;;;;;;4.82;2.00;;;;;;;;;;5064304;28;20078;-69
2023/08/05 13:38:31;;;;;;;2.85;1.90;;;;;;;;;;5064409;28;20043;-68
2023/08/05 13:40:57;;;;;;;1.85;1.45;;;;;;;;;;5064136;28;20055;-69
2023/08/05 13:43:22;;;;;;;3.60;1.90;;;;;;;;;;5063790;28;20500;-69
2023/08/05 13:45:55;;;;;;;5.63;2.03;;;;;;;;;;5065051;28;20082;-68
2023/08/05 13:48:21;;;;;;;;;;;;;;;;;;5064939;28;20040;-68
2023/08/05 13:50:47;;;;;;;5.72;2.30;;;;;;;;;;5056879;28;19928;-69
2023/08/05 13:53:13;;;;;;;4.55;2.25;;;;;;;;;;5025762;28;20775;-69
2023/08/05 13:55:38;;;;;;;6.13;2.90;;;;;;;;;;5063477;28;21109;-68
2023/08/05 13:58:04;;;;;;;6.90;2.92;;;;;;;;;;5054055;28;20461;-68
2023/08/05 14:00:34;;;;;;;4.82;2.42;;;;;;;;;;5041766;28;20126;-68
2023/08/05 14:03:00;;;;;;;4.65;1.83;;;;;;;;;;5038339;28;20040;-68
2023/08/05 14:05:26;;;;;;;4.68;2.40;;;;;;;;;;5043479;28;20049;-68
2023/08/05 14:07:51;;;;;;;4.05;2.20;;;;;;;;;;5045831;28;20037;-69
2023/08/05 14:10:17;;;;;;;2.47;1.95;;;;;;;;;;5050169;28;20039;-69
2023/08/05 14:12:42;;;;;;;4.97;2.72;;;;;;;;;;5047899;28;20410;-68
2023/08/05 14:15:08;;;;;;;4.65;2.50;;;;;;;;;;5043509;28;20055;-69
2023/08/05 14:17:33;;;;;;;4.75;2.47;;;;;;;;;;5043127;28;20045;-69
2023/08/05 14:19:58;;;;;;;5.65;2.67;;;;;;;;;;5043075;28;20033;-68
2023/08/05 14:22:24;;;;;;;6.93;3.20;;;;;;;;;;5037870;28;20494;-68
2023/08/05 14:24:49;;;;;;;5.57;3.03;;;;;;;;;;5045362;28;20129;-68
2023/08/05 14:27:14;;;;;;;8.93;3.15;;;;;;;;;;5043562;28;20052;-68
2023/08/05 14:29:40;;;;;;;5.18;2.42;;;;;;;;;;5042920;28;20059;-68
2023/08/05 14:32:05;;;;;;;3.72;2.25;;;;;;;;;;5041895;28;20067;-69
2023/08/05 14:34:31;;;;;;;6.10;2.20;;;;;;;;;;5043294;28;20032;-68
2023/08/05 14:36:56;;;;;;;5.75;2.33;;;;;;;;;;5043540;28;20025;-68